createdAt,value
2023-03-22T00:01:34.769Z,88.05
2023-03-22T00:04:04.791Z,88.41
2023-03-22T00:06:31.362Z,88.28
2023-03-22T00:08:57.952Z,88.51
2023-03-22T00:11:29.854Z,88.44
2023-03-22T00:13:58.930Z,88.44
2023-03-22T00:16:28.913Z,88.50
2023-03-22T00:18:58.416Z,88.43
2023-03-22T00:21:27.184Z,88.69
2023-03-22T00:23:54.147Z,88.81
2023-03-22T00:26:20.710Z,89.09
2023-03-22T00:28:47.216Z,89.21
2023-03-22T00:31:16.565Z,88.88
2023-03-22T00:33:43.055Z,88.93
2023-03-22T00:36:11.968Z,89.09
2023-03-22T00:38:44.213Z,89.12
2023-03-22T00:41:26.545Z,89.25
2023-03-22T00:43:55.129Z,89.46
2023-03-22T00:46:23.411Z,89.44
2023-03-22T00:48:52.020Z,89.22
2023-03-22T00:51:20.801Z,89.35
2023-03-22T00:53:50.935Z,89.25
2023-03-22T00:56:23.128Z,89.12
2023-03-22T00:58:52.536Z,89.41
2023-03-22T01:01:19.402Z,89.25
2023-03-22T01:03:50.617Z,89.22
2023-03-22T01:06:17.898Z,89.48
2023-03-22T01:08:46.937Z,89.33
2023-03-22T01:11:14.434Z,89.12
2023-03-22T01:13:43.887Z,89.29
2023-03-22T01:16:12.033Z,89.08
2023-03-22T01:18:40.818Z,88.73
2023-03-22T01:21:08.002Z,88.33
2023-03-22T01:23:34.973Z,88.41
2023-03-22T01:26:02.027Z,88.25
2023-03-22T01:28:31.554Z,88.37
2023-03-22T01:31:02.238Z,88.34
2023-03-22T01:33:30.681Z,88.48
2023-03-22T01:35:59.800Z,88.69
2023-03-22T01:38:31.380Z,88.44
2023-03-22T01:40:58.040Z,88.27
2023-03-22T01:43:24.660Z,88.42
2023-03-22T01:45:52.824Z,88.51
2023-03-22T01:48:25.530Z,88.19
2023-03-22T01:50:59.920Z,88.14
2023-03-22T01:53:27.793Z,88.34
2023-03-22T01:56:00.605Z,88.06
2023-03-22T01:58:27.578Z,88.06
2023-03-22T02:00:55.702Z,88.06
2023-03-22T02:03:37.808Z,88.04
2023-03-22T02:06:07.220Z,87.91
2023-03-22T02:08:33.980Z,88.08
2023-03-22T02:11:02.071Z,87.92
2023-03-22T02:13:48.888Z,88.06
2023-03-22T02:16:33.812Z,88.06
2023-03-22T02:19:24.220Z,88.25
2023-03-22T02:22:15.780Z,88.27
2023-03-22T02:25:04.316Z,88.43
2023-03-22T02:28:00.979Z,88.32
2023-03-22T02:31:04.433Z,88.65
2023-03-22T02:33:42.713Z,88.77
2023-03-22T02:36:30.971Z,89.06
2023-03-22T02:39:00.459Z,88.99
2023-03-22T02:41:45.946Z,89.27
2023-03-22T02:44:39.859Z,89.33
2023-03-22T02:47:21.848Z,89.38
2023-03-22T02:50:10.170Z,89.46
2023-03-22T02:52:42.454Z,89.36
2023-03-22T02:55:51.037Z,89.69
2023-03-22T02:58:33.626Z,89.92
2023-03-22T03:01:06.937Z,89.86
2023-03-22T03:03:39.926Z,90.02
2023-03-22T03:06:14.928Z,90.33
2023-03-22T03:08:45.275Z,90.45
2023-03-22T03:11:16.313Z,90.78
2023-03-22T03:13:47.630Z,90.81
2023-03-22T03:16:17.997Z,91.17
2023-03-22T03:18:54.113Z,91.22
2023-03-22T03:21:56.928Z,91.51
2023-03-22T03:24:23.381Z,91.29
2023-03-22T03:27:08.655Z,91.76
2023-03-22T03:30:00.176Z,92.13
2023-03-22T03:32:42.371Z,92.12
2023-03-22T03:35:22.802Z,91.80
2023-03-22T03:37:58.993Z,92.24
2023-03-22T03:40:32.578Z,92.11
2023-03-22T03:43:02.935Z,92.14
2023-03-22T03:45:30.326Z,92.29
2023-03-22T03:48:03.149Z,92.18
2023-03-22T03:50:33.513Z,92.37
2023-03-22T03:53:02.783Z,92.32
2023-03-22T03:55:31.198Z,92.48
2023-03-22T03:58:00.280Z,92.43
2023-03-22T04:00:29.434Z,92.66
2023-03-22T04:02:56.069Z,92.67
2023-03-22T04:05:22.541Z,92.60
2023-03-22T04:07:55.597Z,92.81
2023-03-22T04:10:22.157Z,92.45
2023-03-22T04:12:50.242Z,92.25
2023-03-22T04:15:17.015Z,92.46
2023-03-22T04:17:46.506Z,92.68
2023-03-22T04:20:21.846Z,92.65
2023-03-22T04:22:49.612Z,92.41
2023-03-22T04:25:22.724Z,92.54
2023-03-22T04:27:51.161Z,92.55
2023-03-22T04:30:21.551Z,92.53
2023-03-22T04:32:48.600Z,92.43
2023-03-22T04:35:17.718Z,92.49
2023-03-22T04:37:45.653Z,92.44
2023-03-22T04:40:16.553Z,92.24
2023-03-22T04:42:44.762Z,92.23
2023-03-22T04:45:11.968Z,92.08
2023-03-22T04:47:41.096Z,91.79
2023-03-22T04:50:11.218Z,91.71
2023-03-22T04:52:37.676Z,91.23
2023-03-22T04:55:08.421Z,91.60
2023-03-22T04:57:35.715Z,91.59
2023-03-22T05:00:07.530Z,91.67
2023-03-22T05:02:41.353Z,91.42
2023-03-22T05:05:08.212Z,91.30
2023-03-22T05:07:34.731Z,91.34
2023-03-22T05:10:01.208Z,91.45
2023-03-22T05:12:33.685Z,91.37
2023-03-22T05:15:04.276Z,91.62
2023-03-22T05:17:30.825Z,91.77
2023-03-22T05:19:58.392Z,91.48
2023-03-22T05:22:27.280Z,91.37
2023-03-22T05:24:53.715Z,91.12
2023-03-22T05:27:31.778Z,91.33
2023-03-22T05:29:58.218Z,91.45
2023-03-22T05:32:31.793Z,91.26
2023-03-22T05:34:58.378Z,91.19
2023-03-22T05:37:27.168Z,91.21
2023-03-22T05:40:01.078Z,91.33
2023-03-22T05:42:27.698Z,91.52
2023-03-22T05:44:54.499Z,91.36
2023-03-22T05:47:27.001Z,91.42
2023-03-22T05:49:53.585Z,91.34
2023-03-22T05:52:20.092Z,91.67
2023-03-22T05:54:48.790Z,91.57
2023-03-22T05:57:16.992Z,91.58
2023-03-22T05:59:48.058Z,91.14
2023-03-22T06:02:14.710Z,90.88
2023-03-22T06:04:46.625Z,90.99
2023-03-22T06:07:15.872Z,91.06
2023-03-22T06:09:42.465Z,90.98
2023-03-22T06:12:11.435Z,91.12
2023-03-22T06:14:40.371Z,91.07
2023-03-22T06:17:09.455Z,90.81
2023-03-22T06:19:40.865Z,91.11
2023-03-22T06:22:10.617Z,90.88
2023-03-22T06:24:37.760Z,90.60
2023-03-22T06:27:04.470Z,90.40
2023-03-22T06:29:33.466Z,90.50
2023-03-22T06:32:10.201Z,90.45
2023-03-22T06:34:42.278Z,90.41
2023-03-22T06:37:12.050Z,90.62
2023-03-22T06:39:38.502Z,90.37
2023-03-22T06:42:07.990Z,89.63
2023-03-22T06:44:34.588Z,88.73
2023-03-22T06:47:01.752Z,87.50
2023-03-22T06:49:31.438Z,86.78
2023-03-22T06:51:58.622Z,86.81
2023-03-22T06:54:26.494Z,87.43
2023-03-22T06:56:55.458Z,87.39
2023-03-22T06:59:24.306Z,87.70
2023-03-22T07:01:53.295Z,87.76
2023-03-22T07:04:20.075Z,86.89
2023-03-22T07:06:47.040Z,86.77
2023-03-22T07:09:16.276Z,86.62
2023-03-22T07:11:44.997Z,86.02
2023-03-22T07:14:12.633Z,86.43
2023-03-22T07:16:39.270Z,86.55
2023-03-22T07:19:06.882Z,86.56
2023-03-22T07:21:35.714Z,86.60
2023-03-22T07:24:03.897Z,86.71
2023-03-22T07:26:30.791Z,86.87
2023-03-22T07:29:01.331Z,86.65
2023-03-22T07:31:31.552Z,86.56
2023-03-22T07:34:02.757Z,86.74
2023-03-22T07:36:35.069Z,86.75
2023-03-22T07:39:02.035Z,86.39
2023-03-22T07:41:33.305Z,85.13
2023-03-22T07:44:11.391Z,85.68
2023-03-22T07:46:46.023Z,85.38
2023-03-22T07:49:12.563Z,85.33
2023-03-22T07:51:41.181Z,85.17
2023-03-22T07:54:12.662Z,84.72
2023-03-22T07:56:40.583Z,84.40
2023-03-22T07:59:07.430Z,83.83
2023-03-22T08:01:36.140Z,84.03
2023-03-22T08:04:03.835Z,84.02
2023-03-22T08:06:32.743Z,84.11
2023-03-22T08:09:00.007Z,83.81
2023-03-22T08:11:26.607Z,82.53
2023-03-22T08:13:57.416Z,81.96
2023-03-22T08:16:25.261Z,80.47
2023-03-22T08:18:52.879Z,79.71
2023-03-22T08:21:19.415Z,78.46
2023-03-22T08:23:48.668Z,79.06
2023-03-22T08:26:18.782Z,79.96
2023-03-22T08:28:45.443Z,80.35
2023-03-22T08:31:18.597Z,79.77
2023-03-22T08:33:50.494Z,80.90
2023-03-22T08:36:19.611Z,80.73
2023-03-22T08:38:49.167Z,80.76
2023-03-22T08:41:16.240Z,81.04
2023-03-22T08:43:43.101Z,80.52
2023-03-22T08:46:10.187Z,80.06
2023-03-22T08:48:42.273Z,81.12
2023-03-22T08:51:08.935Z,80.55
2023-03-22T08:53:36.518Z,80.15
2023-03-22T08:56:04.088Z,79.56
2023-03-22T08:58:38.045Z,79.54
2023-03-22T09:01:06.699Z,79.00
2023-03-22T09:03:38.453Z,78.45
2023-03-22T09:06:05.730Z,78.52
2023-03-22T09:08:38.176Z,78.22
2023-03-22T09:11:09.224Z,78.66
2023-03-22T09:13:38.201Z,79.14
2023-03-22T09:16:08.832Z,78.26
2023-03-22T09:18:39.427Z,78.58
2023-03-22T09:21:08.823Z,79.34
2023-03-22T09:23:38.062Z,78.89
2023-03-22T09:26:08.985Z,78.44
2023-03-22T09:28:38.450Z,78.68
2023-03-22T09:31:11.711Z,78.35
2023-03-22T09:33:41.977Z,79.15
2023-03-22T09:36:10.053Z,78.44
2023-03-22T09:38:36.585Z,79.01
2023-03-22T09:41:07.054Z,79.23
2023-03-22T09:43:45.624Z,79.75
2023-03-22T09:46:17.731Z,80.45
2023-03-22T09:48:48.404Z,80.57
2023-03-22T09:51:47.580Z,81.40
2023-03-22T09:54:27.457Z,81.50
2023-03-22T09:57:18.785Z,82.28
2023-03-22T10:00:00.182Z,83.34
2023-03-22T10:02:39.032Z,83.53
2023-03-22T10:05:21.354Z,83.78
2023-03-22T10:07:56.570Z,84.38
2023-03-22T10:10:26.644Z,84.55
2023-03-22T10:12:53.058Z,84.84
2023-03-22T10:15:42.426Z,85.08
2023-03-22T10:18:16.922Z,85.00
2023-03-22T10:21:13.814Z,84.89
2023-03-22T10:23:55.320Z,85.62
2023-03-22T10:26:29.429Z,85.62
2023-03-22T10:29:04.086Z,85.59
2023-03-22T10:31:32.279Z,85.93
2023-03-22T10:34:15.239Z,86.15
2023-03-22T10:36:46.635Z,86.39
2023-03-22T10:39:21.635Z,86.77
2023-03-22T10:41:52.660Z,86.96
2023-03-22T10:44:26.481Z,86.74
2023-03-22T10:47:00.242Z,87.26
2023-03-22T10:49:33.612Z,87.08
2023-03-22T10:52:09.224Z,87.43
2023-03-22T10:54:36.771Z,87.25
2023-03-22T10:57:03.445Z,87.17
2023-03-22T10:59:45.777Z,87.58
2023-03-22T11:02:30.527Z,87.71
2023-03-22T11:05:03.067Z,88.09
2023-03-22T11:07:45.987Z,88.50
2023-03-22T11:10:21.740Z,88.30
2023-03-22T11:12:52.280Z,88.33
2023-03-22T11:15:33.703Z,88.42
2023-03-22T11:18:20.646Z,88.31
2023-03-22T11:21:01.888Z,88.14
2023-03-22T11:23:33.228Z,87.92
2023-03-22T11:26:07.750Z,87.95
2023-03-22T11:28:50.736Z,87.71
2023-03-22T11:31:21.204Z,88.22
2023-03-22T11:33:59.637Z,88.20
2023-03-22T11:36:27.653Z,87.67
2023-03-22T11:39:07.391Z,87.58
2023-03-22T11:41:39.434Z,87.46
2023-03-22T11:44:12.667Z,87.74
2023-03-22T11:46:55.082Z,87.81
2023-03-22T11:49:27.028Z,87.73
2023-03-22T11:51:55.593Z,87.66
2023-03-22T11:54:34.061Z,87.58
2023-03-22T11:57:04.507Z,87.67
2023-03-22T11:59:37.731Z,87.60
2023-03-22T12:02:16.421Z,87.75
2023-03-22T12:04:47.259Z,87.50
2023-03-22T12:07:17.488Z,87.21
2023-03-22T12:10:00.258Z,87.49
2023-03-22T12:12:31.922Z,87.23
2023-03-22T12:15:27.662Z,87.27
2023-03-22T12:18:02.922Z,86.99
2023-03-22T12:20:56.615Z,87.04
2023-03-22T12:23:33.268Z,86.57
2023-03-22T12:26:28.428Z,86.59
2023-03-22T12:29:04.049Z,86.27
2023-03-22T12:31:40.984Z,86.39
2023-03-22T12:34:15.848Z,86.74
2023-03-22T12:36:47.890Z,86.44
2023-03-22T12:39:46.200Z,86.49
2023-03-22T12:43:00.672Z,86.53
2023-03-22T12:45:35.166Z,86.56
2023-03-22T12:48:18.146Z,86.17
2023-03-22T12:50:53.387Z,85.98
2023-03-22T12:53:29.426Z,86.33
2023-03-22T12:55:56.695Z,86.10
2023-03-22T12:58:26.726Z,85.82
2023-03-22T13:00:58.886Z,85.71
2023-03-22T13:03:38.100Z,85.66
2023-03-22T13:06:27.324Z,85.82
2023-03-22T13:09:16.162Z,85.33
2023-03-22T13:12:07.698Z,85.64
2023-03-22T13:14:52.502Z,85.36
2023-03-22T13:17:28.503Z,85.58
2023-03-22T13:20:07.858Z,85.22
2023-03-22T13:22:43.578Z,85.36
2023-03-22T13:25:10.942Z,85.27
2023-03-22T13:27:51.282Z,85.40
2023-03-22T13:30:24.082Z,85.55
2023-03-22T13:33:12.127Z,85.41
2023-03-22T13:35:55.465Z,85.55
2023-03-22T13:38:42.618Z,85.36
2023-03-22T13:41:25.245Z,85.60
2023-03-22T13:43:56.973Z,85.80
2023-03-22T13:46:23.746Z,85.95
2023-03-22T13:48:53.592Z,85.82
2023-03-22T13:51:23.720Z,85.83
2023-03-22T13:54:23.856Z,86.10
2023-03-22T13:57:00.917Z,86.65
2023-03-22T13:59:29.828Z,87.06
2023-03-22T14:01:59.226Z,87.57
2023-03-22T14:04:34.861Z,87.75
2023-03-22T14:07:15.102Z,87.76
2023-03-22T14:09:54.393Z,87.79
2023-03-22T14:12:56.495Z,88.13
2023-03-22T14:15:38.260Z,88.54
2023-03-22T14:18:23.305Z,88.65
2023-03-22T14:20:55.006Z,88.94
